createdAt,value
2023-05-12T00:01:55.255Z,12.20
2023-05-12T00:04:21.988Z,12.20
2023-05-12T00:06:48.885Z,12.20
2023-05-12T00:09:15.521Z,12.10
2023-05-12T00:11:42.210Z,12.10
2023-05-12T00:14:09.161Z,12.00
2023-05-12T00:16:35.908Z,12.00
2023-05-12T00:19:02.932Z,12.00
2023-05-12T00:21:29.618Z,11.90
2023-05-12T00:23:56.312Z,11.90
2023-05-12T00:26:22.966Z,11.90
2023-05-12T00:28:49.799Z,11.80
2023-05-12T00:31:16.564Z,11.80
2023-05-12T00:33:43.251Z,11.80
2023-05-12T00:36:09.940Z,11.70
2023-05-12T00:38:37.297Z,11.70
2023-05-12T00:41:04.536Z,11.70
2023-05-12T00:43:31.786Z,11.70
2023-05-12T00:45:58.825Z,11.60
2023-05-12T00:48:26.081Z,11.60
2023-05-12T00:50:54.467Z,11.50
2023-05-12T00:53:21.319Z,11.50
2023-05-12T00:55:48.115Z,11.50
2023-05-12T00:58:15.284Z,11.50
2023-05-12T01:00:42.536Z,11.40
2023-05-12T01:03:09.602Z,11.40
2023-05-12T01:05:41.781Z,11.40
2023-05-12T01:08:10.026Z,11.40
2023-05-12T01:10:37.127Z,11.40
2023-05-12T01:13:03.939Z,11.40
2023-05-12T01:15:32.824Z,11.50
2023-05-12T01:18:03.143Z,11.40
2023-05-12T01:20:31.758Z,11.30
2023-05-12T01:22:59.416Z,11.30
2023-05-12T01:25:32.034Z,11.30
2023-05-12T01:28:01.025Z,11.40
2023-05-12T01:30:29.220Z,11.30
2023-05-12T01:32:56.394Z,11.30
2023-05-12T01:35:23.136Z,11.30
2023-05-12T01:37:57.893Z,11.30
2023-05-12T01:40:24.656Z,11.30
2023-05-12T01:42:51.634Z,11.30
2023-05-12T01:45:18.769Z,11.20
2023-05-12T01:47:45.957Z,11.20
2023-05-12T01:50:12.651Z,11.20
2023-05-12T01:52:40.006Z,11.20
2023-05-12T01:55:10.749Z,11.20
2023-05-12T01:57:44.468Z,11.10
2023-05-12T02:00:12.624Z,11.10
2023-05-12T02:02:45.128Z,11.20
2023-05-12T02:05:12.933Z,11.10
2023-05-12T02:07:40.914Z,11.10
2023-05-12T02:10:09.308Z,11.10
2023-05-12T02:12:36.008Z,11.20
2023-05-12T02:15:02.832Z,11.20
2023-05-12T02:17:30.768Z,11.10
2023-05-12T02:20:00.855Z,11.20
2023-05-12T02:22:27.475Z,11.20
2023-05-12T02:24:54.264Z,11.20
2023-05-12T02:27:21.408Z,11.20
2023-05-12T02:29:48.057Z,11.20
2023-05-12T02:32:15.981Z,11.20
2023-05-12T02:34:45.973Z,11.10
2023-05-12T02:37:12.707Z,11.20
2023-05-12T02:39:39.859Z,11.20
2023-05-12T02:42:07.006Z,11.10
2023-05-12T02:44:33.808Z,11.10
2023-05-12T02:47:00.606Z,11.20
2023-05-12T02:49:27.475Z,11.20
2023-05-12T02:51:55.185Z,11.20
2023-05-12T02:54:21.857Z,11.10
2023-05-12T02:56:48.580Z,11.10
2023-05-12T02:59:15.240Z,11.10
2023-05-12T03:01:41.939Z,11.10
2023-05-12T03:04:08.754Z,11.20
2023-05-12T03:06:35.470Z,11.20
2023-05-12T03:09:02.259Z,11.20
2023-05-12T03:11:28.964Z,11.20
2023-05-12T03:13:55.668Z,11.20
2023-05-12T03:16:22.579Z,11.20
2023-05-12T03:18:49.594Z,11.20
2023-05-12T03:21:16.390Z,11.20
2023-05-12T03:23:43.005Z,11.20
2023-05-12T03:26:09.696Z,11.20
2023-05-12T03:28:36.784Z,11.10
2023-05-12T03:31:03.414Z,11.10
2023-05-12T03:33:30.242Z,11.10
2023-05-12T03:35:56.948Z,11.20
2023-05-12T03:38:23.827Z,11.20
2023-05-12T03:40:53.406Z,11.20
2023-05-12T03:43:21.127Z,11.20
2023-05-12T03:45:48.350Z,11.20
2023-05-12T03:48:16.099Z,11.20
2023-05-12T03:50:42.747Z,11.20
2023-05-12T03:53:09.388Z,11.20
2023-05-12T03:55:35.982Z,11.20
2023-05-12T03:58:04.064Z,11.20
2023-05-12T04:00:30.766Z,11.20
2023-05-12T04:02:57.617Z,11.20
2023-05-12T04:05:24.580Z,11.20
2023-05-12T04:07:51.293Z,11.30
2023-05-12T04:10:18.466Z,11.30
2023-05-12T04:12:45.292Z,11.30
2023-05-12T04:15:14.563Z,11.30
2023-05-12T04:17:41.523Z,11.30
2023-05-12T04:20:08.819Z,11.40
2023-05-12T04:22:35.478Z,11.40
2023-05-12T04:25:02.127Z,11.40
2023-05-12T04:27:28.970Z,11.50
2023-05-12T04:29:55.647Z,11.50
2023-05-12T04:32:22.467Z,11.50
2023-05-12T04:34:49.429Z,11.50
2023-05-12T04:37:16.123Z,11.50
2023-05-12T04:39:43.179Z,11.60
2023-05-12T04:42:09.880Z,11.60
2023-05-12T04:44:37.092Z,11.60
2023-05-12T04:47:04.080Z,11.60
2023-05-12T04:49:30.830Z,11.70
2023-05-12T04:51:57.466Z,11.70
2023-05-12T04:54:24.431Z,11.70
2023-05-12T04:56:51.506Z,11.60
2023-05-12T04:59:18.586Z,11.60
2023-05-12T05:01:47.348Z,11.70
2023-05-12T05:04:14.599Z,11.70
2023-05-12T05:06:41.262Z,11.80
2023-05-12T05:09:08.782Z,11.80
2023-05-12T05:11:35.895Z,11.80
2023-05-12T05:14:02.769Z,11.80
2023-05-12T05:16:29.551Z,11.80
2023-05-12T05:18:58.254Z,12.00
2023-05-12T05:21:25.308Z,11.90
2023-05-12T05:23:54.694Z,11.90
2023-05-12T05:26:22.359Z,12.00
2023-05-12T05:28:54.921Z,12.10
2023-05-12T05:31:23.340Z,12.30
2023-05-12T05:33:50.052Z,12.30
2023-05-12T05:36:17.490Z,12.30
2023-05-12T05:38:44.113Z,12.20
2023-05-12T05:41:11.372Z,12.30
2023-05-12T05:43:38.275Z,12.40
2023-05-12T05:46:05.419Z,12.40
2023-05-12T05:48:32.245Z,12.40
2023-05-12T05:50:58.948Z,12.50
2023-05-12T05:53:25.632Z,12.50
2023-05-12T05:55:52.904Z,12.50
2023-05-12T05:58:19.529Z,12.50
2023-05-12T06:00:46.998Z,12.50
2023-05-12T06:03:13.839Z,12.50
2023-05-12T06:05:43.018Z,12.60
2023-05-12T06:08:13.038Z,12.80
2023-05-12T06:10:40.873Z,12.90
2023-05-12T06:13:07.556Z,12.80
2023-05-12T06:15:34.666Z,12.80
2023-05-12T06:18:01.373Z,12.90
2023-05-12T06:20:28.201Z,13.10
2023-05-12T06:22:54.856Z,13.10
2023-05-12T06:25:21.705Z,13.20
2023-05-12T06:27:52.067Z,13.20
2023-05-12T06:30:18.964Z,13.10
2023-05-12T06:32:45.863Z,13.20
2023-05-12T06:35:12.560Z,13.20
2023-05-12T06:37:39.293Z,13.40
2023-05-12T06:40:07.325Z,13.70
2023-05-12T06:42:33.941Z,13.70
2023-05-12T06:45:06.332Z,13.60
2023-05-12T06:47:33.506Z,13.80
2023-05-12T06:50:00.381Z,14.00
2023-05-12T06:52:26.978Z,14.00
2023-05-12T06:54:53.590Z,14.10
2023-05-12T06:57:20.199Z,14.60
2023-05-12T06:59:47.034Z,14.80
2023-05-12T07:02:13.647Z,14.70
2023-05-12T07:04:40.774Z,14.50
2023-05-12T07:07:07.415Z,14.40
2023-05-12T07:09:34.072Z,14.40
2023-05-12T07:12:00.761Z,14.60
2023-05-12T07:14:28.086Z,14.90
2023-05-12T07:16:54.731Z,15.40
2023-05-12T07:19:21.341Z,15.60
2023-05-12T07:21:48.861Z,15.20
2023-05-12T07:24:16.523Z,15.40
2023-05-12T07:26:44.402Z,15.60
2023-05-12T07:29:13.609Z,16.00
2023-05-12T07:31:40.595Z,15.70
2023-05-12T07:34:07.342Z,16.00
2023-05-12T07:36:34.245Z,15.90
2023-05-12T07:39:00.954Z,16.10
2023-05-12T07:41:27.673Z,15.90
2023-05-12T07:43:54.324Z,15.90
2023-05-12T07:46:21.093Z,15.90
2023-05-12T07:48:47.840Z,16.10
2023-05-12T07:51:15.102Z,16.20
2023-05-12T07:53:41.709Z,16.20
2023-05-12T07:56:08.398Z,16.30
2023-05-12T07:58:35.146Z,15.90
2023-05-12T08:01:05.792Z,15.90
2023-05-12T08:03:34.861Z,15.90
2023-05-12T08:06:03.337Z,16.10
2023-05-12T08:08:30.056Z,16.20
2023-05-12T08:10:56.686Z,16.10
2023-05-12T08:13:23.331Z,16.30
2023-05-12T08:15:50.340Z,16.50
2023-05-12T08:18:17.071Z,16.80
2023-05-12T08:20:44.034Z,17.20
2023-05-12T08:23:10.782Z,16.50
2023-05-12T08:25:37.503Z,16.70
2023-05-12T08:28:04.536Z,16.80
2023-05-12T08:30:31.206Z,16.70
2023-05-12T08:32:57.985Z,16.80
2023-05-12T08:35:27.409Z,16.90
2023-05-12T08:37:54.150Z,17.20
2023-05-12T08:40:22.370Z,16.40
2023-05-12T08:43:05.116Z,16.60
2023-05-12T08:45:31.883Z,16.90
2023-05-12T08:47:59.270Z,17.00
2023-05-12T08:50:28.555Z,17.20
2023-05-12T08:52:56.073Z,17.40
2023-05-12T08:55:27.381Z,18.00
2023-05-12T08:57:57.755Z,18.20
2023-05-12T09:00:28.283Z,18.20
2023-05-12T09:02:56.033Z,18.00
2023-05-12T09:05:23.576Z,18.90
2023-05-12T09:07:51.689Z,18.80
2023-05-12T09:10:34.509Z,18.80
2023-05-12T09:13:16.929Z,18.10
2023-05-12T09:15:47.062Z,18.20
2023-05-12T09:18:13.822Z,18.30
2023-05-12T09:20:40.610Z,18.80
2023-05-12T09:23:20.690Z,18.50
2023-05-12T09:25:58.179Z,18.50
2023-05-12T09:28:24.857Z,18.60
2023-05-12T09:30:51.543Z,18.50
2023-05-12T09:33:18.145Z,18.50
2023-05-12T09:35:46.024Z,18.50
2023-05-12T09:38:15.177Z,19.00
2023-05-12T09:40:43.363Z,19.00
2023-05-12T09:43:11.923Z,19.10
2023-05-12T09:45:39.889Z,18.80
2023-05-12T09:48:13.925Z,19.00
2023-05-12T09:50:51.211Z,18.50
2023-05-12T09:53:20.549Z,18.40
2023-05-12T09:55:48.409Z,19.10
2023-05-12T09:58:18.673Z,18.90
2023-05-12T10:03:17.623Z,19.20
2023-05-12T10:05:57.467Z,19.10
2023-05-12T10:08:29.788Z,19.60
2023-05-12T10:10:59.419Z,20.00
2023-05-12T10:13:26.346Z,20.10
2023-05-12T10:15:57.036Z,20.30
2023-05-12T10:18:24.761Z,20.00
2023-05-12T10:20:53.736Z,20.10
2023-05-12T10:23:21.120Z,20.30
2023-05-12T10:25:49.301Z,20.20
2023-05-12T10:28:16.655Z,20.30
2023-05-12T10:30:45.020Z,20.30
2023-05-12T10:33:11.883Z,20.00
2023-05-12T10:35:40.027Z,20.20
2023-05-12T10:38:09.392Z,20.70
2023-05-12T10:40:36.205Z,21.10
2023-05-12T10:43:03.121Z,20.40
2023-05-12T10:45:36.071Z,20.20
2023-05-12T10:48:07.162Z,20.40
2023-05-12T10:50:33.948Z,20.40
2023-05-12T10:53:00.844Z,20.50
2023-05-12T10:55:42.507Z,20.50
2023-05-12T10:58:11.723Z,20.20
2023-05-12T11:00:49.837Z,20.30
2023-05-12T11:03:23.967Z,20.10
2023-05-12T11:06:05.379Z,19.90
2023-05-12T11:08:35.636Z,19.40
2023-05-12T11:11:03.211Z,18.80
2023-05-12T11:13:30.204Z,19.00
2023-05-12T11:15:58.467Z,19.10
2023-05-12T11:18:25.611Z,19.20
2023-05-12T11:20:53.307Z,19.10
2023-05-12T11:23:28.758Z,18.90
2023-05-12T11:25:58.910Z,18.90
2023-05-12T11:28:25.853Z,19.20
2023-05-12T11:30:54.979Z,19.30
2023-05-12T11:33:23.113Z,19.30
2023-05-12T11:35:50.616Z,19.10
2023-05-12T11:38:18.899Z,19.00
2023-05-12T11:40:45.850Z,19.10
2023-05-12T11:43:14.599Z,18.70
2023-05-12T11:45:41.954Z,18.60
2023-05-12T11:48:13.630Z,18.60
2023-05-12T11:50:42.676Z,18.50
2023-05-12T11:53:15.010Z,18.50
2023-05-12T11:55:50.887Z,18.80
2023-05-12T11:58:21.959Z,18.80
2023-05-12T12:00:51.678Z,18.90
2023-05-12T12:03:19.113Z,18.80
2023-05-12T12:05:59.362Z,18.80
2023-05-12T12:08:26.188Z,18.80
2023-05-12T12:10:53.419Z,19.00
2023-05-12T12:13:21.849Z,19.00
2023-05-12T12:15:49.379Z,19.30
2023-05-12T12:18:21.838Z,19.60
2023-05-12T12:20:48.631Z,19.70
2023-05-12T12:23:15.343Z,19.40
2023-05-12T12:25:41.978Z,18.60
2023-05-12T12:28:08.619Z,17.00
2023-05-12T12:30:35.284Z,15.50
2023-05-12T12:33:02.336Z,14.60
2023-05-12T12:35:29.602Z,14.20
2023-05-12T12:37:56.286Z,14.30
2023-05-12T12:40:22.898Z,14.40
2023-05-12T12:42:49.523Z,14.60
2023-05-12T12:45:17.863Z,14.70
2023-05-12T12:47:46.053Z,15.10
2023-05-12T12:50:13.563Z,15.30
2023-05-12T12:52:40.469Z,15.60
2023-05-12T12:55:07.654Z,15.90
2023-05-12T12:57:34.704Z,16.10
2023-05-12T13:00:01.485Z,16.20
2023-05-12T13:02:28.247Z,16.40
2023-05-12T13:04:54.966Z,16.60
2023-05-12T13:07:21.920Z,16.60
2023-05-12T13:09:48.573Z,16.70
2023-05-12T13:12:15.243Z,16.90
2023-05-12T13:14:42.230Z,17.20
2023-05-12T13:17:08.959Z,17.30
2023-05-12T13:19:37.922Z,17.50
2023-05-12T13:22:05.363Z,17.70
2023-05-12T13:24:32.022Z,17.50
2023-05-12T13:26:58.850Z,17.30
2023-05-12T13:29:25.568Z,17.30
2023-05-12T13:31:52.280Z,17.10
2023-05-12T13:34:18.911Z,17.10
2023-05-12T13:36:45.596Z,17.10
2023-05-12T13:39:12.604Z,17.20
2023-05-12T13:41:39.264Z,17.30
2023-05-12T13:44:06.055Z,17.50
2023-05-12T13:46:32.933Z,17.50
2023-05-12T13:48:59.651Z,17.80
2023-05-12T13:51:26.610Z,18.10
2023-05-12T13:53:53.810Z,18.40
2023-05-12T13:56:20.701Z,18.60
2023-05-12T13:58:47.850Z,18.60
2023-05-12T14:01:15.017Z,18.70
2023-05-12T14:03:42.467Z,18.70
2023-05-12T14:06:09.321Z,18.90
2023-05-12T14:08:36.238Z,19.20
2023-05-12T14:11:02.973Z,19.10
2023-05-12T14:13:29.690Z,19.10
2023-05-12T14:15:56.864Z,19.20
2023-05-12T14:18:24.705Z,19.10
2023-05-12T14:20:51.730Z,19.40
2023-05-12T14:23:18.506Z,19.50
2023-05-12T14:25:45.249Z,19.20
2023-05-12T14:28:11.894Z,19.00
2023-05-12T14:30:38.944Z,19.00
2023-05-12T14:33:05.641Z,19.00
2023-05-12T14:35:32.427Z,18.90
2023-05-12T14:37:59.057Z,18.90
2023-05-12T14:40:27.200Z,19.00
2023-05-12T14:42:55.081Z,18.90
2023-05-12T14:45:22.140Z,18.90
2023-05-12T14:47:49.090Z,19.00
2023-05-12T14:50:15.850Z,19.30
2023-05-12T14:52:42.639Z,19.80
2023-05-12T14:55:13.635Z,19.80
2023-05-12T14:57:41.412Z,19.50
2023-05-12T15:00:13.342Z,19.30
2023-05-12T15:02:41.502Z,19.00
2023-05-12T15:05:09.895Z,18.90
2023-05-12T15:07:37.175Z,18.80
2023-05-12T15:10:04.824Z,18.90
2023-05-12T15:12:32.283Z,19.40
2023-05-12T15:15:04.252Z,19.80
2023-05-12T15:17:31.509Z,19.90
2023-05-12T15:19:58.384Z,19.90
2023-05-12T15:22:25.029Z,20.40
2023-05-12T15:24:51.655Z,20.50
2023-05-12T15:27:18.344Z,20.60
2023-05-12T15:29:45.015Z,20.50
2023-05-12T15:32:11.700Z,20.60
2023-05-12T15:34:39.192Z,20.70
2023-05-12T15:37:06.467Z,20.60
2023-05-12T15:39:33.088Z,20.10
2023-05-12T15:42:00.721Z,20.10
2023-05-12T15:44:27.576Z,20.40
2023-05-12T15:46:54.379Z,20.30
2023-05-12T15:49:21.062Z,20.10
2023-05-12T15:51:47.730Z,20.40
2023-05-12T15:54:14.367Z,20.30
2023-05-12T15:56:41.104Z,20.10
2023-05-12T15:59:07.887Z,19.70
2023-05-12T16:01:34.589Z,19.50
2023-05-12T16:04:01.705Z,19.20
2023-05-12T16:06:28.425Z,19.20
2023-05-12T16:08:55.042Z,19.20
2023-05-12T16:11:22.201Z,19.20
2023-05-12T16:13:48.879Z,19.40
2023-05-12T16:16:15.734Z,19.50
2023-05-12T16:18:43.484Z,19.50
2023-05-12T16:21:11.649Z,19.50
2023-05-12T16:23:38.583Z,19.60
2023-05-12T16:26:05.958Z,19.50
2023-05-12T16:28:34.455Z,19.70
2023-05-12T16:31:02.049Z,19.60
2023-05-12T16:33:28.913Z,19.70
2023-05-12T16:35:55.816Z,19.50
2023-05-12T16:38:22.475Z,19.50
2023-05-12T16:40:49.255Z,19.50
2023-05-12T16:43:16.001Z,19.50
2023-05-12T16:45:42.830Z,19.40
2023-05-12T16:48:09.816Z,19.20
2023-05-12T16:50:36.813Z,19.10
2023-05-12T16:53:03.672Z,19.10
2023-05-12T16:55:30.720Z,19.00
2023-05-12T16:57:57.431Z,19.00
2023-05-12T17:00:24.256Z,19.10
2023-05-12T17:02:50.999Z,19.20
2023-05-12T17:05:17.758Z,19.10
2023-05-12T17:07:44.588Z,19.10
2023-05-12T17:10:11.668Z,18.90
2023-05-12T17:12:38.578Z,18.90
2023-05-12T17:15:08.525Z,18.90
2023-05-12T17:17:35.968Z,18.90
2023-05-12T17:20:03.793Z,18.90
2023-05-12T17:22:31.954Z,18.90
2023-05-12T17:24:58.700Z,18.90
2023-05-12T17:27:25.714Z,18.90
2023-05-12T17:29:52.341Z,18.80
2023-05-12T17:32:18.981Z,18.80
2023-05-12T17:34:49.934Z,18.80
2023-05-12T17:37:17.057Z,18.70
2023-05-12T17:39:44.335Z,18.70
2023-05-12T17:42:11.159Z,18.60
2023-05-12T17:44:37.814Z,18.60
2023-05-12T17:47:04.985Z,18.60
2023-05-12T17:49:31.705Z,18.60
2023-05-12T17:51:58.985Z,18.60
2023-05-12T17:54:25.647Z,18.50
2023-05-12T17:56:52.803Z,18.40
2023-05-12T17:59:19.459Z,18.40
2023-05-12T18:01:46.094Z,18.30
2023-05-12T18:04:12.808Z,18.30
2023-05-12T18:06:39.967Z,18.20
2023-05-12T18:09:06.825Z,18.20
2023-05-12T18:11:34.248Z,18.20
2023-05-12T18:14:02.503Z,18.10
2023-05-12T18:16:29.806Z,18.10
2023-05-12T18:18:57.065Z,18.00
2023-05-12T18:21:24.153Z,17.90
2023-05-12T18:23:50.897Z,18.00
2023-05-12T18:26:17.703Z,17.80
2023-05-12T18:28:44.382Z,17.70
2023-05-12T18:33:40.749Z,17.50
2023-05-12T18:36:07.964Z,17.40
2023-05-12T18:38:34.787Z,17.40
2023-05-12T18:41:01.465Z,17.20
2023-05-12T18:43:28.392Z,17.10
2023-05-12T18:45:55.000Z,17.00
2023-05-12T18:48:21.642Z,16.90
2023-05-12T18:50:48.416Z,16.80
2023-05-12T18:53:15.062Z,16.70
2023-05-12T18:55:42.548Z,16.60
2023-05-12T18:58:09.350Z,16.40
2023-05-12T19:00:36.069Z,16.20
2023-05-12T19:03:02.953Z,16.10
2023-05-12T19:05:30.482Z,16.10
2023-05-12T19:07:57.233Z,15.90
2023-05-12T19:10:23.976Z,15.80
2023-05-12T19:12:53.405Z,15.70
2023-05-12T19:15:21.521Z,15.50
2023-05-12T19:17:49.064Z,15.30
2023-05-12T19:20:15.863Z,15.20
2023-05-12T19:22:42.781Z,15.10
2023-05-12T19:25:09.715Z,15.00
2023-05-12T19:27:36.427Z,14.90
2023-05-12T19:30:05.034Z,14.90
2023-05-12T19:32:32.762Z,14.90
2023-05-12T19:35:00.759Z,14.80
2023-05-12T19:37:27.735Z,14.80
2023-05-12T19:39:54.382Z,14.70
2023-05-12T19:42:21.399Z,14.60
2023-05-12T19:44:48.038Z,14.70
2023-05-12T19:47:14.829Z,14.50
2023-05-12T19:49:41.654Z,14.50
2023-05-12T19:52:08.601Z,14.50
2023-05-12T19:54:36.008Z,14.50
2023-05-12T19:57:03.112Z,14.50
2023-05-12T19:59:29.878Z,14.30
2023-05-12T20:01:56.645Z,14.10
2023-05-12T20:04:23.427Z,14.00
2023-05-12T20:06:50.830Z,13.90
2023-05-12T20:09:20.365Z,13.80
2023-05-12T20:11:47.154Z,13.60
2023-05-12T20:14:14.046Z,13.50
2023-05-12T20:16:40.731Z,13.30
2023-05-12T20:19:07.634Z,13.20
2023-05-12T20:21:34.388Z,13.10
2023-05-12T20:24:01.187Z,13.00
2023-05-12T20:26:28.587Z,12.90
2023-05-12T20:28:55.595Z,12.70
2023-05-12T20:31:22.387Z,12.70
2023-05-12T20:33:49.551Z,12.60
2023-05-12T20:36:16.185Z,12.50
2023-05-12T20:38:42.883Z,12.50
2023-05-12T20:41:10.585Z,12.30
2023-05-12T20:43:37.729Z,12.30
2023-05-12T20:46:05.285Z,12.20
2023-05-12T20:48:32.709Z,12.10
2023-05-12T20:50:59.544Z,12.00
2023-05-12T20:53:26.271Z,11.90
2023-05-12T20:55:52.925Z,11.90
2023-05-12T20:58:19.608Z,11.80
2023-05-12T21:00:46.269Z,11.80
2023-05-12T21:03:17.333Z,11.80
2023-05-12T21:05:47.875Z,11.70
2023-05-12T21:08:14.769Z,11.60
2023-05-12T21:10:41.569Z,11.50
2023-05-12T21:13:08.301Z,11.50
2023-05-12T21:15:35.389Z,11.40
2023-05-12T21:18:02.268Z,11.30
2023-05-12T21:20:28.959Z,11.20
2023-05-12T21:22:56.913Z,11.20
2023-05-12T21:25:24.028Z,11.10
2023-05-12T21:27:51.694Z,11.00
2023-05-12T21:30:18.642Z,11.00
2023-05-12T21:32:45.644Z,10.90
2023-05-12T21:35:12.460Z,10.80
2023-05-12T21:37:39.175Z,10.80
2023-05-12T21:40:06.733Z,10.70
2023-05-12T21:42:33.400Z,10.80
2023-05-12T21:45:00.210Z,10.70
2023-05-12T21:47:26.904Z,10.70
2023-05-12T21:49:54.819Z,10.60
2023-05-12T21:52:22.257Z,10.60
2023-05-12T21:54:49.204Z,10.80
2023-05-12T21:57:16.792Z,10.80
2023-05-12T21:59:43.446Z,10.70
2023-05-12T22:02:10.189Z,10.90
2023-05-12T22:04:36.839Z,11.00
2023-05-12T22:07:03.529Z,11.10
2023-05-12T22:09:31.272Z,11.30
2023-05-12T22:11:58.135Z,11.60
2023-05-12T22:14:24.873Z,11.70
2023-05-12T22:16:51.633Z,11.80
2023-05-12T22:19:19.484Z,11.90
2023-05-12T22:21:46.186Z,11.80
2023-05-12T22:24:12.837Z,11.80
2023-05-12T22:26:39.532Z,11.70
2023-05-12T22:29:06.505Z,11.60
2023-05-12T22:31:33.404Z,11.60
2023-05-12T22:34:00.294Z,11.50
2023-05-12T22:36:27.194Z,11.50
2023-05-12T22:38:53.933Z,11.40
2023-05-12T22:41:20.745Z,11.40
2023-05-12T22:43:47.387Z,11.40
2023-05-12T22:46:14.072Z,11.40
2023-05-12T22:48:40.850Z,11.40
2023-05-12T22:51:07.677Z,11.10
2023-05-12T22:53:41.298Z,11.00
2023-05-12T22:56:08.469Z,10.80
2023-05-12T22:58:35.247Z,10.70
2023-05-12T23:01:02.151Z,10.50
2023-05-12T23:03:29.020Z,10.40
2023-05-12T23:05:56.119Z,10.40
2023-05-12T23:08:22.841Z,10.20
2023-05-12T23:10:49.691Z,10.20
2023-05-12T23:13:16.470Z,10.10
2023-05-12T23:15:43.092Z,10.00
2023-05-12T23:18:09.832Z,9.90
2023-05-12T23:20:36.489Z,9.90
2023-05-12T23:23:03.267Z,9.80
2023-05-12T23:25:30.211Z,9.80
2023-05-12T23:27:56.899Z,9.70
2023-05-12T23:30:23.977Z,9.60
2023-05-12T23:32:50.899Z,9.60
2023-05-12T23:35:17.690Z,9.50
2023-05-12T23:37:44.429Z,9.60
2023-05-12T23:40:11.489Z,9.70
2023-05-12T23:42:38.372Z,9.60
2023-05-12T23:45:06.302Z,9.40
2023-05-12T23:47:33.461Z,9.40
2023-05-12T23:50:00.212Z,9.30
2023-05-12T23:52:26.886Z,9.30
2023-05-12T23:54:53.570Z,9.20
2023-05-12T23:57:20.382Z,9.20
2023-05-12T23:59:47.027Z,9.20
